Terminal Aerodrome Forecast
Issued by NWS Boise, ID

Home | Current Version | Previous Version | Text Only | Print | Product List | Glossary On
Versions: 1 2 3 4 5 6 7 8 9 10 11 12 13 14 15 16 17 18 19 20 21 22 23 24 25 26
221
FTUS45 KBOI 131123
TAFBOI
TAF
KBOI 131123Z 1312/1412 VRB03KT P6SM BKN050
     FM132200 13004KT 4SM -SHRA BR OVC025
     FM140300 VRB03KT 4SM -RASN BR OVC015
     FM140800 31004KT 2SM -SN OVC015=

USA.gov is the U.S. government's official web portal to all federal, state and local government web resources and services.